In Rescue
 
Open Full Screen Window  High Contrast Mode
July 23, 2019 12:57 AM EDT
Weather Information
Wind Direction
  ---
Wind Speed
  00 kt (0 mph)
Wind Gust
  00 kt (0 mph)
Altimeter
29.86 in
Visibility
10 SM
Temperature
17° C
63° F
Dewpoint
17° C
63° F
Humidity
100%
Sky Condition
Broken @ 11,000 ft
VFR

METAR KFSO 230457Z AUTO 00000KT 10SM BKN110 17/17 A2986 RMK AO2 T01740167 402520173

FAA Disclaimer: The data displayed is for advisory purposes only and is not to be used for flight planning or operations.